sensor_id;sensor_type;location;lat;lon;timestamp;temperature;humidity
21473;DHT22;10898;48.072;11.682;2022-07-29T00:00:20;21.40;87.60
21473;DHT22;10898;48.072;11.682;2022-07-29T00:02:22;21.40;86.50
21473;DHT22;10898;48.072;11.682;2022-07-29T00:04:24;21.40;86.90
21473;DHT22;10898;48.072;11.682;2022-07-29T00:06:26;21.30;87.10
21473;DHT22;10898;48.072;11.682;2022-07-29T00:08:28;21.30;87.30
21473;DHT22;10898;48.072;11.682;2022-07-29T00:10:30;21.30;88.10
21473;DHT22;10898;48.072;11.682;2022-07-29T00:12:32;21.30;87.50
21473;DHT22;10898;48.072;11.682;2022-07-29T00:14:34;21.30;87.40
21473;DHT22;10898;48.072;11.682;2022-07-29T00:16:36;21.30;87.40
21473;DHT22;10898;48.072;11.682;2022-07-29T00:18:38;21.30;88.60
21473;DHT22;10898;48.072;11.682;2022-07-29T00:20:41;21.40;89.10
21473;DHT22;10898;48.072;11.682;2022-07-29T00:22:42;21.30;89.10
21473;DHT22;10898;48.072;11.682;2022-07-29T00:24:44;21.30;89.30
21473;DHT22;10898;48.072;11.682;2022-07-29T00:26:46;21.40;88.70
21473;DHT22;10898;48.072;11.682;2022-07-29T00:28:48;21.30;89.70
21473;DHT22;10898;48.072;11.682;2022-07-29T00:30:50;21.30;89.70
21473;DHT22;10898;48.072;11.682;2022-07-29T00:32:51;21.30;90.10
21473;DHT22;10898;48.072;11.682;2022-07-29T00:34:53;21.30;89.40
21473;DHT22;10898;48.072;11.682;2022-07-29T00:37:14;21.30;90.20
21473;DHT22;10898;48.072;11.682;2022-07-29T00:39:15;21.30;90.40
21473;DHT22;10898;48.072;11.682;2022-07-29T00:41:18;21.30;90.20
21473;DHT22;10898;48.072;11.682;2022-07-29T00:43:20;21.20;90.50
21473;DHT22;10898;48.072;11.682;2022-07-29T00:45:22;21.20;90.20
21473;DHT22;10898;48.072;11.682;2022-07-29T00:47:24;21.20;90.60
21473;DHT22;10898;48.072;11.682;2022-07-29T00:49:25;21.20;90.90
21473;DHT22;10898;48.072;11.682;2022-07-29T00:51:27;21.10;90.60
21473;DHT22;10898;48.072;11.682;2022-07-29T00:53:30;21.10;91.10
21473;DHT22;10898;48.072;11.682;2022-07-29T00:55:32;21.10;91.00
21473;DHT22;10898;48.072;11.682;2022-07-29T00:57:34;21.10;91.30
21473;DHT22;10898;48.072;11.682;2022-07-29T00:59:36;21.00;91.80
21473;DHT22;10898;48.072;11.682;2022-07-29T01:01:38;21.00;91.80
21473;DHT22;10898;48.072;11.682;2022-07-29T01:03:40;21.00;92.20
21473;DHT22;10898;48.072;11.682;2022-07-29T01:05:42;21.00;92.40
21473;DHT22;10898;48.072;11.682;2022-07-29T01:07:52;21.00;92.40
21473;DHT22;10898;48.072;11.682;2022-07-29T01:09:55;21.00;92.40
21473;DHT22;10898;48.072;11.682;2022-07-29T01:11:57;21.00;92.80
21473;DHT22;10898;48.072;11.682;2022-07-29T01:14:00;21.00;92.70
21473;DHT22;10898;48.072;11.682;2022-07-29T01:16:07;21.00;92.80
21473;DHT22;10898;48.072;11.682;2022-07-29T01:18:22;21.00;92.60
21473;DHT22;10898;48.072;11.682;2022-07-29T01:25:10;21.00;92.80
21473;DHT22;10898;48.072;11.682;2022-07-29T01:29:41;21.00;93.00
21473;DHT22;10898;48.072;11.682;2022-07-29T01:34:04;21.00;93.40
21473;DHT22;10898;48.072;11.682;2022-07-29T01:36:08;20.90;93.30
21473;DHT22;10898;48.072;11.682;2022-07-29T01:38:16;20.90;93.10
21473;DHT22;10898;48.072;11.682;2022-07-29T01:40:22;20.90;92.90
21473;DHT22;10898;48.072;11.682;2022-07-29T01:42:44;20.90;93.10
21473;DHT22;10898;48.072;11.682;2022-07-29T01:46:55;20.90;93.00
21473;DHT22;10898;48.072;11.682;2022-07-29T01:49:07;20.90;93.70
21473;DHT22;10898;48.072;11.682;2022-07-29T01:51:18;20.90;93.70
21473;DHT22;10898;48.072;11.682;2022-07-29T01:53:31;20.90;93.80
21473;DHT22;10898;48.072;11.682;2022-07-29T01:55:39;20.90;93.90
21473;DHT22;10898;48.072;11.682;2022-07-29T01:57:45;20.90;93.10
21473;DHT22;10898;48.072;11.682;2022-07-29T01:59:49;20.80;93.00
21473;DHT22;10898;48.072;11.682;2022-07-29T02:01:53;20.80;93.20
21473;DHT22;10898;48.072;11.682;2022-07-29T02:03:56;20.70;93.70
21473;DHT22;10898;48.072;11.682;2022-07-29T02:05:58;20.70;94.20
21473;DHT22;10898;48.072;11.682;2022-07-29T02:08:01;20.70;94.00
21473;DHT22;10898;48.072;11.682;2022-07-29T02:10:04;20.70;94.00
21473;DHT22;10898;48.072;11.682;2022-07-29T02:12:08;20.70;94.20
21473;DHT22;10898;48.072;11.682;2022-07-29T02:14:11;20.70;94.50
21473;DHT22;10898;48.072;11.682;2022-07-29T02:16:14;20.70;94.80
21473;DHT22;10898;48.072;11.682;2022-07-29T02:18:18;20.70;94.40
21473;DHT22;10898;48.072;11.682;2022-07-29T02:20:20;20.70;94.40
21473;DHT22;10898;48.072;11.682;2022-07-29T02:22:23;20.70;94.60
21473;DHT22;10898;48.072;11.682;2022-07-29T02:24:26;20.70;94.60
21473;DHT22;10898;48.072;11.682;2022-07-29T02:26:28;20.60;94.70
21473;DHT22;10898;48.072;11.682;2022-07-29T02:28:30;20.70;95.50
21473;DHT22;10898;48.072;11.682;2022-07-29T02:30:38;20.60;95.60
21473;DHT22;10898;48.072;11.682;2022-07-29T02:32:41;20.70;95.90
21473;DHT22;10898;48.072;11.682;2022-07-29T02:34:47;20.60;95.70
21473;DHT22;10898;48.072;11.682;2022-07-29T02:36:50;20.60;96.10
21473;DHT22;10898;48.072;11.682;2022-07-29T02:38:52;20.60;96.20
21473;DHT22;10898;48.072;11.682;2022-07-29T02:41:00;20.60;96.60
21473;DHT22;10898;48.072;11.682;2022-07-29T02:43:03;20.60;96.30
21473;DHT22;10898;48.072;11.682;2022-07-29T02:45:05;20.60;96.50
21473;DHT22;10898;48.072;11.682;2022-07-29T02:47:16;20.60;96.90
21473;DHT22;10898;48.072;11.682;2022-07-29T02:51:27;20.50;96.70
21473;DHT22;10898;48.072;11.682;2022-07-29T02:53:45;20.60;96.50
21473;DHT22;10898;48.072;11.682;2022-07-29T02:55:58;20.40;96.90
21473;DHT22;10898;48.072;11.682;2022-07-29T02:58:01;20.40;96.80
21473;DHT22;10898;48.072;11.682;2022-07-29T03:00:05;20.40;96.40
21473;DHT22;10898;48.072;11.682;2022-07-29T03:02:07;20.40;96.30
21473;DHT22;10898;48.072;11.682;2022-07-29T03:04:11;20.40;97.10
21473;DHT22;10898;48.072;11.682;2022-07-29T03:06:14;20.30;97.40
21473;DHT22;10898;48.072;11.682;2022-07-29T03:08:37;20.30;97.40
21473;DHT22;10898;48.072;11.682;2022-07-29T03:10:39;20.30;97.50
21473;DHT22;10898;48.072;11.682;2022-07-29T03:12:44;20.30;97.70
21473;DHT22;10898;48.072;11.682;2022-07-29T03:14:46;20.20;98.40
21473;DHT22;10898;48.072;11.682;2022-07-29T03:16:48;20.20;98.20
21473;DHT22;10898;48.072;11.682;2022-07-29T03:18:51;20.10;98.40
21473;DHT22;10898;48.072;11.682;2022-07-29T03:20:53;20.10;98.40
21473;DHT22;10898;48.072;11.682;2022-07-29T03:22:56;20.00;98.90
21473;DHT22;10898;48.072;11.682;2022-07-29T03:24:58;20.00;98.80
21473;DHT22;10898;48.072;11.682;2022-07-29T03:27:08;20.00;99.10
21473;DHT22;10898;48.072;11.682;2022-07-29T03:29:10;19.90;98.80
21473;DHT22;10898;48.072;11.682;2022-07-29T03:31:14;19.80;98.90
21473;DHT22;10898;48.072;11.682;2022-07-29T03:33:16;19.80;99.20
21473;DHT22;10898;48.072;11.682;2022-07-29T03:35:21;19.70;99.50
21473;DHT22;10898;48.072;11.682;2022-07-29T03:37:24;19.70;99.70
21473;DHT22;10898;48.072;11.682;2022-07-29T03:39:27;19.70;99.70
21473;DHT22;10898;48.072;11.682;2022-07-29T03:41:30;19.60;99.90
21473;DHT22;10898;48.072;11.682;2022-07-29T03:43:34;19.60;99.90
21473;DHT22;10898;48.072;11.682;2022-07-29T03:45:37;19.50;99.90
21473;DHT22;10898;48.072;11.682;2022-07-29T03:47:45;19.50;99.90
21473;DHT22;10898;48.072;11.682;2022-07-29T03:49:53;19.50;99.90
21473;DHT22;10898;48.072;11.682;2022-07-29T03:51:55;19.40;99.90
21473;DHT22;10898;48.072;11.682;2022-07-29T03:53:57;19.40;99.90
21473;DHT22;10898;48.072;11.682;2022-07-29T03:55:59;19.30;99.90
21473;DHT22;10898;48.072;11.682;2022-07-29T03:58:03;19.30;99.90
21473;DHT22;10898;48.072;11.682;2022-07-29T04:00:06;19.20;99.90
21473;DHT22;10898;48.072;11.682;2022-07-29T04:02:09;19.20;99.90
21473;DHT22;10898;48.072;11.682;2022-07-29T04:04:12;19.10;99.90
21473;DHT22;10898;48.072;11.682;2022-07-29T04:06:15;19.10;99.90
21473;DHT22;10898;48.072;11.682;2022-07-29T04:08:16;19.10;99.90
21473;DHT22;10898;48.072;11.682;2022-07-29T04:10:18;19.10;99.90
21473;DHT22;10898;48.072;11.682;2022-07-29T04:12:32;19.00;99.90
21473;DHT22;10898;48.072;11.682;2022-07-29T04:14:34;18.90;99.90
21473;DHT22;10898;48.072;11.682;2022-07-29T04:16:36;18.90;99.90
21473;DHT22;10898;48.072;11.682;2022-07-29T04:18:38;18.90;99.90
21473;DHT22;10898;48.072;11.682;2022-07-29T04:20:40;18.90;99.90
21473;DHT22;10898;48.072;11.682;2022-07-29T04:22:42;18.90;99.90
21473;DHT22;10898;48.072;11.682;2022-07-29T04:24:44;18.90;99.90
21473;DHT22;10898;48.072;11.682;2022-07-29T04:26:46;18.90;99.90
21473;DHT22;10898;48.072;11.682;2022-07-29T04:28:48;18.90;99.90
21473;DHT22;10898;48.072;11.682;2022-07-29T04:30:50;18.90;99.90
21473;DHT22;10898;48.072;11.682;2022-07-29T04:32:52;18.90;99.90
21473;DHT22;10898;48.072;11.682;2022-07-29T04:34:54;18.90;99.90
21473;DHT22;10898;48.072;11.682;2022-07-29T04:36:56;18.90;99.90
21473;DHT22;10898;48.072;11.682;2022-07-29T04:38:58;18.90;99.90
21473;DHT22;10898;48.072;11.682;2022-07-29T04:41:00;18.90;99.90
21473;DHT22;10898;48.072;11.682;2022-07-29T04:43:02;18.90;99.90
21473;DHT22;10898;48.072;11.682;2022-07-29T04:45:06;18.90;99.90
21473;DHT22;10898;48.072;11.682;2022-07-29T04:47:08;18.90;99.90
21473;DHT22;10898;48.072;11.682;2022-07-29T04:49:11;19.00;99.90
21473;DHT22;10898;48.072;11.682;2022-07-29T04:51:13;19.00;99.90
21473;DHT22;10898;48.072;11.682;2022-07-29T04:53:15;19.00;99.90
21473;DHT22;10898;48.072;11.682;2022-07-29T04:55:17;19.10;99.90
21473;DHT22;10898;48.072;11.682;2022-07-29T04:57:19;19.10;99.90
21473;DHT22;10898;48.072;11.682;2022-07-29T04:59:21;19.20;99.90
21473;DHT22;10898;48.072;11.682;2022-07-29T05:01:23;19.20;99.90
21473;DHT22;10898;48.072;11.682;2022-07-29T05:03:25;19.30;99.90
21473;DHT22;10898;48.072;11.682;2022-07-29T05:05:27;19.30;99.90
21473;DHT22;10898;48.072;11.682;2022-07-29T05:07:29;19.40;99.90
21473;DHT22;10898;48.072;11.682;2022-07-29T05:09:30;19.40;99.90
21473;DHT22;10898;48.072;11.682;2022-07-29T05:11:33;19.50;99.90
21473;DHT22;10898;48.072;11.682;2022-07-29T05:13:35;19.50;99.90
21473;DHT22;10898;48.072;11.682;2022-07-29T05:15:47;19.60;99.90
21473;DHT22;10898;48.072;11.682;2022-07-29T05:17:49;19.60;99.90
21473;DHT22;10898;48.072;11.682;2022-07-29T05:19:51;19.70;99.90
21473;DHT22;10898;48.072;11.682;2022-07-29T05:21:53;19.80;99.90
21473;DHT22;10898;48.072;11.682;2022-07-29T05:23:55;19.80;99.90
21473;DHT22;10898;48.072;11.682;2022-07-29T05:25:57;19.80;99.90
21473;DHT22;10898;48.072;11.682;2022-07-29T05:27:59;19.80;99.90
21473;DHT22;10898;48.072;11.682;2022-07-29T05:30:00;19.90;99.90
21473;DHT22;10898;48.072;11.682;2022-07-29T05:32:03;19.90;99.90
21473;DHT22;10898;48.072;11.682;2022-07-29T05:34:05;20.00;99.90
21473;DHT22;10898;48.072;11.682;2022-07-29T05:36:10;20.00;99.90
21473;DHT22;10898;48.072;11.682;2022-07-29T05:38:14;20.00;99.90
21473;DHT22;10898;48.072;11.682;2022-07-29T05:40:16;20.00;99.90
21473;DHT22;10898;48.072;11.682;2022-07-29T05:42:18;20.00;99.90
21473;DHT22;10898;48.072;11.682;2022-07-29T05:44:20;20.00;99.90
21473;DHT22;10898;48.072;11.682;2022-07-29T05:46:25;20.00;99.90
21473;DHT22;10898;48.072;11.682;2022-07-29T05:48:28;20.00;99.90
21473;DHT22;10898;48.072;11.682;2022-07-29T05:50:30;20.00;99.90
21473;DHT22;10898;48.072;11.682;2022-07-29T05:52:31;20.10;99.90
21473;DHT22;10898;48.072;11.682;2022-07-29T05:54:33;20.10;99.90
21473;DHT22;10898;48.072;11.682;2022-07-29T05:56:36;20.10;99.90
21473;DHT22;10898;48.072;11.682;2022-07-29T05:58:38;20.20;99.90
21473;DHT22;10898;48.072;11.682;2022-07-29T06:00:40;20.20;99.90
21473;DHT22;10898;48.072;11.682;2022-07-29T06:02:42;20.20;99.90
21473;DHT22;10898;48.072;11.682;2022-07-29T06:04:44;20.20;99.90
21473;DHT22;10898;48.072;11.682;2022-07-29T06:06:46;20.20;99.90
21473;DHT22;10898;48.072;11.682;2022-07-29T06:08:48;20.30;99.90
21473;DHT22;10898;48.072;11.682;2022-07-29T06:10:50;20.30;99.90
21473;DHT22;10898;48.072;11.682;2022-07-29T06:12:52;20.30;99.90
21473;DHT22;10898;48.072;11.682;2022-07-29T06:14:54;20.40;99.90
21473;DHT22;10898;48.072;11.682;2022-07-29T06:16:55;20.40;99.90
21473;DHT22;10898;48.072;11.682;2022-07-29T06:18:57;20.40;99.90
21473;DHT22;10898;48.072;11.682;2022-07-29T06:20:59;20.50;99.90
21473;DHT22;10898;48.072;11.682;2022-07-29T06:23:01;20.60;99.90
21473;DHT22;10898;48.072;11.682;2022-07-29T06:25:06;20.50;99.90
21473;DHT22;10898;48.072;11.682;2022-07-29T06:27:07;20.60;99.90
21473;DHT22;10898;48.072;11.682;2022-07-29T06:29:11;20.70;99.90
21473;DHT22;10898;48.072;11.682;2022-07-29T06:31:13;20.70;99.90
21473;DHT22;10898;48.072;11.682;2022-07-29T06:33:18;20.80;99.90
21473;DHT22;10898;48.072;11.682;2022-07-29T06:35:20;20.80;99.90
21473;DHT22;10898;48.072;11.682;2022-07-29T06:37:42;20.80;99.90
21473;DHT22;10898;48.072;11.682;2022-07-29T06:39:46;20.90;99.90
21473;DHT22;10898;48.072;11.682;2022-07-29T06:41:48;21.00;99.90
21473;DHT22;10898;48.072;11.682;2022-07-29T06:43:50;21.00;99.90
21473;DHT22;10898;48.072;11.682;2022-07-29T06:45:58;21.10;99.90
21473;DHT22;10898;48.072;11.682;2022-07-29T06:48:00;21.10;99.90
21473;DHT22;10898;48.072;11.682;2022-07-29T06:50:02;21.20;99.90
21473;DHT22;10898;48.072;11.682;2022-07-29T06:52:08;21.20;99.90
21473;DHT22;10898;48.072;11.682;2022-07-29T06:54:10;21.40;99.90
21473;DHT22;10898;48.072;11.682;2022-07-29T06:56:11;21.40;99.90
21473;DHT22;10898;48.072;11.682;2022-07-29T06:58:15;21.40;99.90
21473;DHT22;10898;48.072;11.682;2022-07-29T07:00:19;21.50;99.90
21473;DHT22;10898;48.072;11.682;2022-07-29T07:02:21;21.50;99.90
21473;DHT22;10898;48.072;11.682;2022-07-29T07:04:23;21.60;99.90
21473;DHT22;10898;48.072;11.682;2022-07-29T07:06:24;21.60;99.90
21473;DHT22;10898;48.072;11.682;2022-07-29T07:08:26;21.70;99.90
21473;DHT22;10898;48.072;11.682;2022-07-29T07:10:28;21.80;99.90
21473;DHT22;10898;48.072;11.682;2022-07-29T07:12:30;21.80;99.90
21473;DHT22;10898;48.072;11.682;2022-07-29T07:14:32;21.90;99.10
21473;DHT22;10898;48.072;11.682;2022-07-29T07:16:34;21.90;99.60
21473;DHT22;10898;48.072;11.682;2022-07-29T07:18:36;22.00;99.50
21473;DHT22;10898;48.072;11.682;2022-07-29T07:20:38;22.10;98.60
21473;DHT22;10898;48.072;11.682;2022-07-29T07:22:40;22.20;97.50
21473;DHT22;10898;48.072;11.682;2022-07-29T07:24:44;22.30;96.70
21473;DHT22;10898;48.072;11.682;2022-07-29T07:26:46;22.30;96.20
21473;DHT22;10898;48.072;11.682;2022-07-29T07:28:48;22.40;96.30
21473;DHT22;10898;48.072;11.682;2022-07-29T07:30:49;22.40;95.30
21473;DHT22;10898;48.072;11.682;2022-07-29T07:32:51;22.40;95.30
21473;DHT22;10898;48.072;11.682;2022-07-29T07:34:53;22.50;94.50
21473;DHT22;10898;48.072;11.682;2022-07-29T07:36:55;22.60;94.60
21473;DHT22;10898;48.072;11.682;2022-07-29T07:38:57;22.60;94.00
21473;DHT22;10898;48.072;11.682;2022-07-29T07:40:59;22.70;94.70
21473;DHT22;10898;48.072;11.682;2022-07-29T07:43:01;22.80;95.20
21473;DHT22;10898;48.072;11.682;2022-07-29T07:45:03;22.80;94.40
21473;DHT22;10898;48.072;11.682;2022-07-29T07:47:16;22.90;93.80
21473;DHT22;10898;48.072;11.682;2022-07-29T07:49:22;23.00;93.80
21473;DHT22;10898;48.072;11.682;2022-07-29T07:51:24;23.10;93.00
21473;DHT22;10898;48.072;11.682;2022-07-29T07:53:26;23.10;92.80
21473;DHT22;10898;48.072;11.682;2022-07-29T07:55:28;23.20;92.90
21473;DHT22;10898;48.072;11.682;2022-07-29T07:57:50;23.20;92.30
21473;DHT22;10898;48.072;11.682;2022-07-29T07:59:52;23.30;92.70
21473;DHT22;10898;48.072;11.682;2022-07-29T08:01:54;23.40;90.70
21473;DHT22;10898;48.072;11.682;2022-07-29T08:03:57;23.40;91.30
21473;DHT22;10898;48.072;11.682;2022-07-29T08:05:59;23.40;90.30
21473;DHT22;10898;48.072;11.682;2022-07-29T08:08:01;23.40;90.70
21473;DHT22;10898;48.072;11.682;2022-07-29T08:10:03;23.50;90.70
21473;DHT22;10898;48.072;11.682;2022-07-29T08:12:06;23.60;90.30
21473;DHT22;10898;48.072;11.682;2022-07-29T08:14:08;23.60;90.40
21473;DHT22;10898;48.072;11.682;2022-07-29T08:16:14;23.60;89.00
21473;DHT22;10898;48.072;11.682;2022-07-29T08:18:17;23.70;89.10
21473;DHT22;10898;48.072;11.682;2022-07-29T08:20:19;23.80;88.80
21473;DHT22;10898;48.072;11.682;2022-07-29T08:22:21;23.70;88.50
21473;DHT22;10898;48.072;11.682;2022-07-29T08:24:22;23.80;88.60
21473;DHT22;10898;48.072;11.682;2022-07-29T08:26:43;24.00;86.90
21473;DHT22;10898;48.072;11.682;2022-07-29T08:28:45;24.00;85.80
21473;DHT22;10898;48.072;11.682;2022-07-29T08:30:50;24.10;84.80
21473;DHT22;10898;48.072;11.682;2022-07-29T08:32:52;24.10;83.80
21473;DHT22;10898;48.072;11.682;2022-07-29T08:34:56;24.10;83.00
21473;DHT22;10898;48.072;11.682;2022-07-29T08:36:58;24.20;84.30
21473;DHT22;10898;48.072;11.682;2022-07-29T08:39:01;24.30;83.90
21473;DHT22;10898;48.072;11.682;2022-07-29T08:41:03;24.40;83.50
21473;DHT22;10898;48.072;11.682;2022-07-29T08:43:05;24.40;83.30
21473;DHT22;10898;48.072;11.682;2022-07-29T08:45:07;24.50;82.10
21473;DHT22;10898;48.072;11.682;2022-07-29T08:47:10;24.50;81.10
21473;DHT22;10898;48.072;11.682;2022-07-29T08:49:12;24.60;81.50
21473;DHT22;10898;48.072;11.682;2022-07-29T08:51:14;24.60;80.70
21473;DHT22;10898;48.072;11.682;2022-07-29T08:53:17;24.70;82.00
21473;DHT22;10898;48.072;11.682;2022-07-29T08:55:19;24.80;80.50
21473;DHT22;10898;48.072;11.682;2022-07-29T08:57:22;24.90;79.50
21473;DHT22;10898;48.072;11.682;2022-07-29T08:59:27;25.00;79.30
21473;DHT22;10898;48.072;11.682;2022-07-29T09:01:32;25.10;80.20
21473;DHT22;10898;48.072;11.682;2022-07-29T09:03:37;25.20;78.80
21473;DHT22;10898;48.072;11.682;2022-07-29T09:05:44;25.20;78.40
21473;DHT22;10898;48.072;11.682;2022-07-29T09:07:48;25.30;79.20
21473;DHT22;10898;48.072;11.682;2022-07-29T09:09:51;25.30;77.10
21473;DHT22;10898;48.072;11.682;2022-07-29T09:11:56;25.40;78.60
21473;DHT22;10898;48.072;11.682;2022-07-29T09:14:00;25.40;76.80
21473;DHT22;10898;48.072;11.682;2022-07-29T09:16:04;25.40;77.70
21473;DHT22;10898;48.072;11.682;2022-07-29T09:18:09;25.40;77.30
21473;DHT22;10898;48.072;11.682;2022-07-29T09:20:30;25.50;76.90
21473;DHT22;10898;48.072;11.682;2022-07-29T09:22:52;25.50;76.60
21473;DHT22;10898;48.072;11.682;2022-07-29T09:24:54;25.50;77.50
21473;DHT22;10898;48.072;11.682;2022-07-29T09:26:56;25.50;78.60
21473;DHT22;10898;48.072;11.682;2022-07-29T09:28:58;25.60;78.70
21473;DHT22;10898;48.072;11.682;2022-07-29T09:31:00;25.70;78.60
21473;DHT22;10898;48.072;11.682;2022-07-29T09:33:03;25.80;77.00
21473;DHT22;10898;48.072;11.682;2022-07-29T09:35:15;25.80;76.20
21473;DHT22;10898;48.072;11.682;2022-07-29T09:37:29;25.90;76.70
21473;DHT22;10898;48.072;11.682;2022-07-29T09:39:32;25.90;77.10
21473;DHT22;10898;48.072;11.682;2022-07-29T09:41:45;26.00;76.00
21473;DHT22;10898;48.072;11.682;2022-07-29T09:43:54;26.10;75.60
21473;DHT22;10898;48.072;11.682;2022-07-29T09:45:55;26.20;76.80
21473;DHT22;10898;48.072;11.682;2022-07-29T09:47:58;26.20;75.60
21473;DHT22;10898;48.072;11.682;2022-07-29T09:50:04;26.30;76.40
21473;DHT22;10898;48.072;11.682;2022-07-29T09:52:07;26.40;76.20
21473;DHT22;10898;48.072;11.682;2022-07-29T09:56:40;26.50;75.90
21473;DHT22;10898;48.072;11.682;2022-07-29T09:58:42;26.50;74.90
21473;DHT22;10898;48.072;11.682;2022-07-29T10:00:44;26.50;74.30
21473;DHT22;10898;48.072;11.682;2022-07-29T10:02:47;26.50;73.80
21473;DHT22;10898;48.072;11.682;2022-07-29T10:04:49;26.40;73.50
21473;DHT22;10898;48.072;11.682;2022-07-29T10:07:02;26.40;72.40
21473;DHT22;10898;48.072;11.682;2022-07-29T10:09:11;26.40;72.60
21473;DHT22;10898;48.072;11.682;2022-07-29T10:11:16;26.30;72.20
21473;DHT22;10898;48.072;11.682;2022-07-29T10:13:18;26.30;73.10
21473;DHT22;10898;48.072;11.682;2022-07-29T10:15:21;26.30;73.50
21473;DHT22;10898;48.072;11.682;2022-07-29T10:17:23;26.30;74.00
21473;DHT22;10898;48.072;11.682;2022-07-29T10:19:25;26.30;73.90
21473;DHT22;10898;48.072;11.682;2022-07-29T10:21:27;26.20;74.30
21473;DHT22;10898;48.072;11.682;2022-07-29T10:23:37;26.20;74.90
21473;DHT22;10898;48.072;11.682;2022-07-29T10:25:47;26.20;74.30
21473;DHT22;10898;48.072;11.682;2022-07-29T10:27:49;26.20;74.10
21473;DHT22;10898;48.072;11.682;2022-07-29T10:29:54;26.20;74.30
21473;DHT22;10898;48.072;11.682;2022-07-29T10:34:04;26.00;74.70
21473;DHT22;10898;48.072;11.682;2022-07-29T10:43:18;25.90;76.00
21473;DHT22;10898;48.072;11.682;2022-07-29T10:45:21;25.90;75.60
21473;DHT22;10898;48.072;11.682;2022-07-29T10:47:24;25.80;75.60
21473;DHT22;10898;48.072;11.682;2022-07-29T10:49:26;25.70;76.10
21473;DHT22;10898;48.072;11.682;2022-07-29T10:54:06;25.60;76.70
21473;DHT22;10898;48.072;11.682;2022-07-29T10:56:22;25.60;74.70
21473;DHT22;10898;48.072;11.682;2022-07-29T10:58:25;25.60;74.50
21473;DHT22;10898;48.072;11.682;2022-07-29T11:00:28;25.50;75.40
21473;DHT22;10898;48.072;11.682;2022-07-29T11:09:17;25.50;75.30
21473;DHT22;10898;48.072;11.682;2022-07-29T11:13:49;25.50;75.00
21473;DHT22;10898;48.072;11.682;2022-07-29T11:15:57;25.60;76.80
21473;DHT22;10898;48.072;11.682;2022-07-29T11:22:33;25.80;73.50
21473;DHT22;10898;48.072;11.682;2022-07-29T11:24:35;25.70;73.90
21473;DHT22;10898;48.072;11.682;2022-07-29T11:27:09;25.80;75.00
21473;DHT22;10898;48.072;11.682;2022-07-29T11:29:20;25.90;73.50
21473;DHT22;10898;48.072;11.682;2022-07-29T11:31:34;25.90;73.30
21473;DHT22;10898;48.072;11.682;2022-07-29T11:33:36;26.00;72.40
21473;DHT22;10898;48.072;11.682;2022-07-29T11:36:07;26.10;74.90
21473;DHT22;10898;48.072;11.682;2022-07-29T11:38:24;26.20;72.00
21473;DHT22;10898;48.072;11.682;2022-07-29T11:40:28;26.20;71.80
21473;DHT22;10898;48.072;11.682;2022-07-29T11:46:55;26.50;69.60
21473;DHT22;10898;48.072;11.682;2022-07-29T11:48:58;26.60;70.60
21473;DHT22;10898;48.072;11.682;2022-07-29T11:51:01;26.60;68.60
21473;DHT22;10898;48.072;11.682;2022-07-29T11:53:11;26.70;69.00
21473;DHT22;10898;48.072;11.682;2022-07-29T11:55:15;26.80;68.60
21473;DHT22;10898;48.072;11.682;2022-07-29T11:57:18;26.90;68.50
21473;DHT22;10898;48.072;11.682;2022-07-29T11:59:22;27.00;67.00
21473;DHT22;10898;48.072;11.682;2022-07-29T12:01:33;27.10;66.10
21473;DHT22;10898;48.072;11.682;2022-07-29T12:03:36;27.20;67.10
21473;DHT22;10898;48.072;11.682;2022-07-29T12:05:43;27.30;66.40
21473;DHT22;10898;48.072;11.682;2022-07-29T12:07:52;27.40;65.00
21473;DHT22;10898;48.072;11.682;2022-07-29T12:09:54;27.50;64.30
21473;DHT22;10898;48.072;11.682;2022-07-29T12:11:57;27.60;63.00
21473;DHT22;10898;48.072;11.682;2022-07-29T12:14:05;27.60;63.20
21473;DHT22;10898;48.072;11.682;2022-07-29T12:16:07;27.70;62.60
21473;DHT22;10898;48.072;11.682;2022-07-29T12:18:15;27.70;62.10
21473;DHT22;10898;48.072;11.682;2022-07-29T12:20:29;27.70;62.60
21473;DHT22;10898;48.072;11.682;2022-07-29T12:22:35;27.60;62.50
21473;DHT22;10898;48.072;11.682;2022-07-29T12:24:44;27.60;62.70
21473;DHT22;10898;48.072;11.682;2022-07-29T12:26:50;27.60;63.00
21473;DHT22;10898;48.072;11.682;2022-07-29T12:28:52;27.60;63.20
21473;DHT22;10898;48.072;11.682;2022-07-29T12:30:55;27.70;63.00
21473;DHT22;10898;48.072;11.682;2022-07-29T12:32:57;27.70;62.10
21473;DHT22;10898;48.072;11.682;2022-07-29T12:35:00;27.70;60.80
21473;DHT22;10898;48.072;11.682;2022-07-29T12:37:03;27.70;61.80
21473;DHT22;10898;48.072;11.682;2022-07-29T12:39:07;27.70;62.20
21473;DHT22;10898;48.072;11.682;2022-07-29T12:41:10;27.70;62.50
21473;DHT22;10898;48.072;11.682;2022-07-29T12:43:15;27.70;62.80
21473;DHT22;10898;48.072;11.682;2022-07-29T12:45:17;27.80;61.80
21473;DHT22;10898;48.072;11.682;2022-07-29T12:47:29;27.80;62.00
21473;DHT22;10898;48.072;11.682;2022-07-29T12:49:31;27.90;61.30
21473;DHT22;10898;48.072;11.682;2022-07-29T12:51:39;27.90;61.30
21473;DHT22;10898;48.072;11.682;2022-07-29T12:53:41;27.90;61.20
21473;DHT22;10898;48.072;11.682;2022-07-29T12:55:44;27.90;61.70
21473;DHT22;10898;48.072;11.682;2022-07-29T12:57:50;28.10;60.80
21473;DHT22;10898;48.072;11.682;2022-07-29T13:02:04;28.20;59.90
21473;DHT22;10898;48.072;11.682;2022-07-29T13:04:06;28.30;60.40
21473;DHT22;10898;48.072;11.682;2022-07-29T13:06:27;28.40;58.70
21473;DHT22;10898;48.072;11.682;2022-07-29T13:08:29;28.40;58.60
21473;DHT22;10898;48.072;11.682;2022-07-29T13:10:35;28.50;58.80
21473;DHT22;10898;48.072;11.682;2022-07-29T13:12:38;28.50;59.10
21473;DHT22;10898;48.072;11.682;2022-07-29T13:14:40;28.50;59.70
21473;DHT22;10898;48.072;11.682;2022-07-29T13:19:13;28.60;60.90
21473;DHT22;10898;48.072;11.682;2022-07-29T13:21:15;28.50;59.20
21473;DHT22;10898;48.072;11.682;2022-07-29T13:23:19;28.40;58.70
21473;DHT22;10898;48.072;11.682;2022-07-29T13:25:28;28.30;59.10
21473;DHT22;10898;48.072;11.682;2022-07-29T13:27:31;28.20;59.50
21473;DHT22;10898;48.072;11.682;2022-07-29T13:29:35;28.10;59.50
21473;DHT22;10898;48.072;11.682;2022-07-29T13:31:38;27.90;60.00
21473;DHT22;10898;48.072;11.682;2022-07-29T13:33:40;27.80;61.00
21473;DHT22;10898;48.072;11.682;2022-07-29T13:35:42;27.70;61.10
21473;DHT22;10898;48.072;11.682;2022-07-29T13:37:44;27.60;61.30
21473;DHT22;10898;48.072;11.682;2022-07-29T13:39:46;27.50;61.80
21473;DHT22;10898;48.072;11.682;2022-07-29T13:41:53;27.50;61.40